Theodore Francis Green State Airport
KPVD : now visible

Airfield :











YOU CAN JOIN US ON...

 
LOGIN :

Register | Disclaimer

   EN    FR    IT 

 









Legend :    VFR   Marginal VFR   IFR   Intensive IFR   Very Intensive IFR
Visi :
Ceiling :
>= 8 km
>= 3000ft
5 to 8 km
1000 to 3000 ft
1500m to 5 km
500 to 1000 ft
800 to 1500m
200 to 500 ft
< 800m
< 200 ft
Symbols :   Thunderstorms  Fog  Heavy snow  Heavy precipitations  Wind > 20 kt






- Airport Elevation : 55 ft
- IATA code : PVD


KPVD - Theodore Francis Green State

CURRENT METAR :
  • 060451Z 31008KT 10SM FEW048 00/M09 A2999 RMK AO2 SLP156 LAST T00001089 400611006

EXPIRED METARs :
  • 060351Z 29013KT 10SM FEW048 00/M08 A2996 RMK AO2 PK WND 29028/0257 SLP147 T00001083
  • 060251Z 30017G22KT 10SM SCT050 01/M08 A2993 RMK AO2 PK WND 29032/0218 SLP137 T00061083 53028

TAF KPVD
Valid from the 06 at 03:00 until the 07 at 00:00 UTC


060300Z 0603/0624 29012G23KT P6SM FEW030 BKN050
FM061000 27010KT P6SM FEW150
FM061500 25008KT P6SM OVC080
FM062000 23006KT 6SM -RASN BR SCT025 OVC050



MET'MAP, your aeronautical weather chart ! - Copyright ORBIFLY December 2007 - Disclaimer

ORBIFLY MET'MAP TEAM :

Programming & Development : Alexandra Zaïnal
Concept & original design : Baudouin d'Aumeries
Assistance for programming : Marc-Olivier Méhu
Technical & hardware support : Manuel Goepfert

Contact : metmap@orbifly.com




SOURCES & CREDITS :

   NOAA       Earth
Advisory